createdAt,value
2018-11-27T00:01:12.066Z,27.07
2018-11-27T00:03:46.049Z,27.40
2018-11-27T00:06:15.797Z,30.17
2018-11-27T00:08:45.388Z,26.10
2018-11-27T00:11:14.995Z,21.47
2018-11-27T00:13:44.396Z,25.73
2018-11-27T00:16:14.019Z,28.67
2018-11-27T00:18:43.511Z,25.37
2018-11-27T00:21:13.424Z,26.33
2018-11-27T00:23:43.235Z,25.53
2018-11-27T00:26:13.264Z,27.67
2018-11-27T00:28:43.180Z,25.13
2018-11-27T00:31:13.021Z,22.63
2018-11-27T00:33:42.810Z,29.33
2018-11-27T00:36:12.713Z,24.93
2018-11-27T00:38:42.313Z,25.77
2018-11-27T00:41:12.331Z,24.23
2018-11-27T00:43:42.167Z,23.90
2018-11-27T00:46:12.587Z,26.27
2018-11-27T00:48:42.475Z,22.90
2018-11-27T00:51:12.390Z,20.50
2018-11-27T00:53:42.403Z,22.97
2018-11-27T00:56:12.227Z,21.80
2018-11-27T00:58:42.267Z,21.87
2018-11-27T01:01:12.663Z,21.40
2018-11-27T01:03:42.908Z,24.00
2018-11-27T01:06:12.817Z,21.87
2018-11-27T01:08:43.037Z,22.83
2018-11-27T01:11:12.972Z,21.70
2018-11-27T01:13:43.272Z,20.83
2018-11-27T01:16:14.316Z,21.63
2018-11-27T01:18:44.328Z,22.33
2018-11-27T01:21:14.237Z,21.03
2018-11-27T01:23:44.259Z,19.93
2018-11-27T01:26:14.280Z,19.57
2018-11-27T01:28:44.273Z,19.60
2018-11-27T01:31:14.416Z,20.23
2018-11-27T01:33:45.557Z,19.00
2018-11-27T01:36:15.990Z,18.40
2018-11-27T01:38:45.992Z,21.33
2018-11-27T01:41:15.918Z,21.57
2018-11-27T01:43:45.804Z,19.93
2018-11-27T01:46:15.949Z,20.53
2018-11-27T01:48:46.028Z,19.73
2018-11-27T01:51:15.980Z,20.40
2018-11-27T01:53:45.894Z,15.87
2018-11-27T01:56:16.401Z,20.67
2018-11-27T01:58:47.338Z,20.43
2018-11-27T02:01:17.148Z,18.53
2018-11-27T02:03:47.472Z,19.63
2018-11-27T02:06:17.609Z,19.40
2018-11-27T02:08:47.713Z,20.23
2018-11-27T02:11:17.422Z,20.10
2018-11-27T02:13:47.172Z,19.97
2018-11-27T02:16:17.370Z,19.73
2018-11-27T02:18:47.891Z,19.40
2018-11-27T02:21:18.305Z,19.47
2018-11-27T02:23:48.022Z,18.30
2018-11-27T02:26:18.253Z,19.93
2018-11-27T02:28:48.357Z,20.03
2018-11-27T02:31:18.266Z,19.30
2018-11-27T02:33:48.492Z,20.10
2018-11-27T02:36:18.102Z,18.63
2018-11-27T02:38:48.238Z,16.77
2018-11-27T02:41:18.852Z,18.33
2018-11-27T02:43:48.862Z,18.13
2018-11-27T02:46:18.897Z,17.90
2018-11-27T02:48:48.918Z,18.57
2018-11-27T02:51:18.930Z,17.77
2018-11-27T02:53:48.851Z,17.83
2018-11-27T02:56:18.857Z,18.90
2018-11-27T02:58:48.975Z,17.67
2018-11-27T03:01:18.879Z,17.80
2018-11-27T03:03:49.023Z,19.80
2018-11-27T03:06:18.942Z,19.67
2018-11-27T03:08:49.149Z,19.67
2018-11-27T03:11:19.278Z,18.30
2018-11-27T03:13:49.375Z,19.60
2018-11-27T03:16:19.286Z,19.93
2018-11-27T03:18:50.427Z,18.53
2018-11-27T03:21:20.236Z,17.80
2018-11-27T03:23:50.391Z,18.43
2018-11-27T03:26:20.272Z,18.33
2018-11-27T03:28:50.391Z,18.80
2018-11-27T03:31:20.307Z,18.87
2018-11-27T03:33:50.229Z,18.57
2018-11-27T03:36:20.341Z,19.60
2018-11-27T03:38:57.432Z,18.70
2018-11-27T03:41:27.769Z,19.43
2018-11-27T03:43:57.877Z,18.93
2018-11-27T03:46:29.825Z,18.40
2018-11-27T03:48:59.859Z,18.53
2018-11-27T03:51:29.979Z,21.87
2018-11-27T03:54:00.075Z,20.37
2018-11-27T03:56:30.396Z,19.13
2018-11-27T03:59:00.450Z,27.00
2018-11-27T04:01:30.568Z,27.87
2018-11-27T04:04:00.672Z,38.27
2018-11-27T04:06:30.992Z,23.97
2018-11-27T04:09:00.787Z,47.00
2018-11-27T04:11:30.950Z,107.17
2018-11-27T04:14:00.827Z,37.00
2018-11-27T04:16:30.838Z,43.57
2018-11-27T04:19:01.173Z,20.83
2018-11-27T04:21:32.105Z,49.10
2018-11-27T04:24:02.423Z,21.57
2018-11-27T04:26:32.751Z,19.30
2018-11-27T04:29:03.195Z,28.10
2018-11-27T04:31:33.404Z,22.60
2018-11-27T04:34:04.553Z,63.70
2018-11-27T04:36:35.601Z,20.53
2018-11-27T04:39:08.356Z,22.67
2018-11-27T04:41:39.034Z,31.90
2018-11-27T04:44:09.430Z,21.13
2018-11-27T04:46:40.173Z,19.80
2018-11-27T04:49:10.486Z,46.03
2018-11-27T04:51:43.151Z,34.30
2018-11-27T04:54:13.501Z,22.87
2018-11-27T04:56:45.243Z,44.63
2018-11-27T04:59:15.381Z,19.53
2018-11-27T05:01:45.160Z,18.47
2018-11-27T05:04:15.085Z,22.00
2018-11-27T05:06:46.424Z,26.73
2018-11-27T05:09:16.336Z,20.13
2018-11-27T05:11:46.152Z,20.93
2018-11-27T05:14:16.183Z,26.80
2018-11-27T05:16:46.182Z,31.97
2018-11-27T05:19:16.303Z,18.70
2018-11-27T05:21:46.321Z,25.57
2018-11-27T05:24:16.024Z,23.30
2018-11-27T05:26:46.041Z,19.20
2018-11-27T05:29:15.870Z,25.00
2018-11-27T05:31:45.875Z,20.40
2018-11-27T05:34:15.898Z,21.77
2018-11-27T05:36:45.702Z,22.30
2018-11-27T05:39:15.925Z,20.27
2018-11-27T05:41:46.375Z,21.60
2018-11-27T05:44:16.300Z,22.60
2018-11-27T05:46:46.486Z,20.10
2018-11-27T05:49:17.032Z,20.00
2018-11-27T05:51:46.938Z,21.80
2018-11-27T05:54:17.355Z,20.77
2018-11-27T05:56:47.579Z,21.37
2018-11-27T05:59:17.692Z,20.73
2018-11-27T06:01:48.031Z,20.93
2018-11-27T06:04:18.373Z,21.17
2018-11-27T06:06:48.453Z,26.93
2018-11-27T06:09:19.006Z,24.33
2018-11-27T06:11:49.345Z,33.90
2018-11-27T06:14:19.965Z,23.00
2018-11-27T06:16:50.275Z,25.23
2018-11-27T06:19:20.383Z,22.17
2018-11-27T06:21:50.530Z,23.40
2018-11-27T06:24:20.527Z,21.60
2018-11-27T06:26:51.382Z,23.10
2018-11-27T06:29:22.819Z,24.10
2018-11-27T06:31:53.151Z,20.20
2018-11-27T06:34:22.944Z,22.90
2018-11-27T06:36:53.978Z,24.70
2018-11-27T06:39:23.807Z,22.23
2018-11-27T06:41:54.033Z,21.73
2018-11-27T06:44:25.028Z,20.60
2018-11-27T06:46:55.191Z,24.37
2018-11-27T06:49:24.910Z,26.83
2018-11-27T06:51:54.803Z,23.43
2018-11-27T06:54:24.710Z,24.57
2018-11-27T06:56:54.738Z,25.20
2018-11-27T06:59:24.869Z,26.53
2018-11-27T07:01:54.248Z,26.80
2018-11-27T07:04:24.391Z,26.93
2018-11-27T07:06:54.397Z,25.13
2018-11-27T07:09:24.398Z,25.97
2018-11-27T07:11:54.519Z,27.67
2018-11-27T07:14:24.858Z,30.07
2018-11-27T07:16:54.888Z,28.83
2018-11-27T07:19:24.894Z,33.03
2018-11-27T07:21:55.013Z,31.23
2018-11-27T07:24:24.917Z,30.80
2018-11-27T07:26:54.420Z,32.73
2018-11-27T07:29:24.529Z,28.20
2018-11-27T07:31:54.359Z,30.40
2018-11-27T07:34:24.032Z,30.73
2018-11-27T07:36:54.390Z,31.80
2018-11-27T07:39:24.211Z,31.70
2018-11-27T07:41:53.810Z,30.43
2018-11-27T07:44:23.500Z,29.97
2018-11-27T07:46:53.211Z,30.20
2018-11-27T07:49:23.131Z,31.53
2018-11-27T07:51:53.651Z,32.20
2018-11-27T07:54:23.780Z,30.40
2018-11-27T07:56:53.482Z,29.83
2018-11-27T07:59:23.500Z,32.23
2018-11-27T08:01:54.020Z,29.07
2018-11-27T08:04:23.734Z,29.77
2018-11-27T08:06:53.471Z,31.07
2018-11-27T08:09:27.112Z,29.33
2018-11-27T08:11:53.051Z,35.73
2018-11-27T08:14:22.890Z,31.07
2018-11-27T08:16:55.764Z,28.80
2018-11-27T08:19:25.471Z,28.80
2018-11-27T08:21:55.090Z,28.63
2018-11-27T08:24:24.811Z,36.07
2018-11-27T08:26:54.502Z,28.33
2018-11-27T08:29:24.205Z,30.30
2018-11-27T08:31:54.031Z,31.00
2018-11-27T08:34:23.538Z,30.60
2018-11-27T08:36:53.033Z,29.83
2018-11-27T08:39:22.836Z,38.93
2018-11-27T08:41:52.773Z,33.80
2018-11-27T08:44:22.470Z,31.30
2018-11-27T08:46:52.028Z,27.97
2018-11-27T08:49:21.578Z,30.63
2018-11-27T08:51:51.310Z,27.97
2018-11-27T08:54:21.099Z,28.20
2018-11-27T08:56:51.041Z,28.97
2018-11-27T08:59:20.953Z,28.40
2018-11-27T09:01:50.742Z,27.00
2018-11-27T09:04:20.031Z,27.80
2018-11-27T09:06:49.770Z,29.40
2018-11-27T09:09:19.661Z,36.53
2018-11-27T09:11:49.261Z,29.50
2018-11-27T09:14:19.020Z,32.53
2018-11-27T09:16:48.911Z,27.53
2018-11-27T09:19:18.697Z,28.27
2018-11-27T09:21:48.530Z,29.57
2018-11-27T09:24:18.886Z,26.37
2018-11-27T09:26:48.663Z,27.60
2018-11-27T09:29:18.558Z,30.10
2018-11-27T09:31:48.475Z,33.30
2018-11-27T09:34:18.798Z,25.63
2018-11-27T09:36:48.830Z,20.70
2018-11-27T09:39:18.419Z,29.10
2018-11-27T09:41:47.952Z,25.33
2018-11-27T09:44:17.641Z,24.03
2018-11-27T09:46:47.352Z,19.87
2018-11-27T09:49:17.260Z,24.93
2018-11-27T09:51:46.972Z,20.57
2018-11-27T09:54:16.582Z,26.37
2018-11-27T09:56:46.072Z,35.23
2018-11-27T09:59:16.010Z,31.53
2018-11-27T10:01:47.136Z,23.77
2018-11-27T10:04:16.845Z,22.80
2018-11-27T10:06:46.771Z,19.50
2018-11-27T10:09:16.575Z,19.20
2018-11-27T10:11:46.020Z,19.30
2018-11-27T10:14:16.011Z,20.17
2018-11-27T10:16:45.814Z,16.77
2018-11-27T10:19:15.931Z,19.30
2018-11-27T10:21:45.330Z,16.97
2018-11-27T10:24:15.031Z,17.23
2018-11-27T10:26:45.664Z,17.27
2018-11-27T10:29:15.591Z,17.37
2018-11-27T10:31:46.414Z,15.97
2018-11-27T10:34:16.630Z,17.97
2018-11-27T10:36:46.571Z,17.00
2018-11-27T10:39:16.592Z,16.00
2018-11-27T10:41:47.021Z,17.63
2018-11-27T10:44:17.523Z,25.77
2018-11-27T10:46:47.240Z,17.53
2018-11-27T10:49:16.842Z,16.07
2018-11-27T10:51:46.651Z,17.60
2018-11-27T10:54:16.462Z,14.50
2018-11-27T10:56:45.971Z,14.07
2018-11-27T10:59:15.676Z,17.20
2018-11-27T11:01:49.912Z,18.07
2018-11-27T11:04:19.612Z,15.90
2018-11-27T11:06:49.106Z,16.33
2018-11-27T11:09:19.031Z,17.47
2018-11-27T11:11:48.415Z,17.47
2018-11-27T11:14:18.498Z,17.60
2018-11-27T11:16:47.843Z,18.73
2018-11-27T11:19:18.451Z,22.57
2018-11-27T11:21:47.459Z,19.20
2018-11-27T11:24:17.063Z,17.30
2018-11-27T11:26:46.992Z,16.73
2018-11-27T11:29:16.901Z,16.10
2018-11-27T11:31:46.502Z,16.93
2018-11-27T11:34:16.519Z,19.63
2018-11-27T11:36:46.452Z,15.43
2018-11-27T11:39:16.372Z,16.43
2018-11-27T11:41:46.033Z,16.57
2018-11-27T11:44:15.869Z,16.90
2018-11-27T11:46:45.269Z,18.57
2018-11-27T11:49:14.977Z,17.57
2018-11-27T11:51:44.393Z,14.07
2018-11-27T11:54:14.398Z,13.20
2018-11-27T11:56:44.002Z,16.70
2018-11-27T11:59:13.522Z,13.70
2018-11-27T12:01:43.532Z,14.83
2018-11-27T12:04:13.852Z,14.97
2018-11-27T12:06:43.770Z,15.13
2018-11-27T12:09:13.994Z,17.43
2018-11-27T12:11:44.936Z,24.03
2018-11-27T12:14:14.651Z,27.33
2018-11-27T12:16:44.671Z,24.43
2018-11-27T12:19:14.374Z,30.30
2018-11-27T12:21:43.895Z,15.47
2018-11-27T12:24:13.591Z,14.37
2018-11-27T12:26:43.892Z,13.00
2018-11-27T12:29:13.810Z,16.73
2018-11-27T12:31:43.521Z,14.13
2018-11-27T12:34:15.071Z,18.23
2018-11-27T12:36:45.611Z,19.97
2018-11-27T12:39:16.029Z,18.87
2018-11-27T12:41:46.472Z,18.47
2018-11-27T12:44:16.894Z,19.57
2018-11-27T12:46:47.011Z,21.53
2018-11-27T12:49:16.931Z,24.87
2018-11-27T12:51:46.520Z,20.47
2018-11-27T12:54:16.941Z,23.70
2018-11-27T12:56:46.671Z,21.97
2018-11-27T12:59:16.461Z,22.67
2018-11-27T13:01:46.387Z,22.20
2018-11-27T13:04:16.307Z,23.47
2018-11-27T13:06:46.428Z,24.13
2018-11-27T13:09:16.834Z,22.17
2018-11-27T13:11:46.447Z,24.43
2018-11-27T13:14:16.247Z,21.23
2018-11-27T13:16:46.387Z,22.60
2018-11-27T13:19:16.048Z,23.27
2018-11-27T13:21:45.896Z,55.97
2018-11-27T13:24:15.907Z,22.53
2018-11-27T13:26:45.411Z,23.13
2018-11-27T13:29:14.917Z,22.30
2018-11-27T13:31:44.836Z,22.10
2018-11-27T13:34:15.460Z,22.93
2018-11-27T13:36:45.188Z,21.80
2018-11-27T13:39:19.070Z,21.07
2018-11-27T13:41:48.785Z,20.80
2018-11-27T13:44:19.016Z,19.77
2018-11-27T13:46:49.125Z,20.83
2018-11-27T13:49:21.096Z,18.87
2018-11-27T13:51:55.216Z,21.53
2018-11-27T13:54:38.550Z,19.17
2018-11-27T13:57:18.282Z,22.93
2018-11-27T13:59:55.567Z,18.43
2018-11-27T14:02:43.313Z,20.37
2018-11-27T14:05:20.574Z,18.33
2018-11-27T14:07:58.380Z,19.30
2018-11-27T14:10:32.795Z,19.67
2018-11-27T14:13:04.043Z,19.30
2018-11-27T14:15:46.872Z,19.60
2018-11-27T14:18:17.306Z,19.13
2018-11-27T14:20:47.194Z,22.43
2018-11-27T14:23:17.020Z,18.93
2018-11-27T14:25:46.727Z,20.33
2018-11-27T14:28:16.735Z,20.67
2018-11-27T14:30:46.332Z,23.23
2018-11-27T14:33:16.561Z,20.67
2018-11-27T14:35:46.287Z,24.47
2018-11-27T14:38:16.021Z,21.87
2018-11-27T14:40:45.794Z,24.67
2018-11-27T14:43:15.815Z,22.53
2018-11-27T14:45:45.735Z,23.77
2018-11-27T14:48:15.864Z,23.03
2018-11-27T14:50:46.564Z,30.33
2018-11-27T14:53:17.025Z,23.00
2018-11-27T14:55:47.320Z,25.10
2018-11-27T14:58:17.145Z,23.53
2018-11-27T15:00:47.255Z,24.00
2018-11-27T15:03:17.387Z,22.37
2018-11-27T15:05:47.407Z,25.40
2018-11-27T15:08:17.619Z,24.67
2018-11-27T15:10:47.734Z,30.33
2018-11-27T15:13:17.350Z,29.03
2018-11-27T15:15:47.770Z,33.13
2018-11-27T15:18:17.576Z,31.53
2018-11-27T15:20:48.213Z,28.90
2018-11-27T15:23:18.943Z,34.90
2018-11-27T15:25:49.021Z,37.60
2018-11-27T15:28:18.796Z,37.27
2018-11-27T15:30:50.221Z,38.27
2018-11-27T15:33:20.764Z,41.13
2018-11-27T15:35:50.662Z,42.97
2018-11-27T15:38:20.581Z,40.27
2018-11-27T15:40:50.902Z,45.93
2018-11-27T15:43:23.430Z,46.40
2018-11-27T15:45:54.424Z,45.27
2018-11-27T15:48:25.023Z,59.90
2018-11-27T15:50:56.397Z,49.80
2018-11-27T15:53:26.821Z,53.50
2018-11-27T15:55:58.182Z,48.43
2018-11-27T15:58:28.918Z,45.07
2018-11-27T16:01:00.374Z,47.20
2018-11-27T16:03:31.425Z,41.33
2018-11-27T16:06:01.967Z,36.07
2018-11-27T16:08:34.837Z,36.07
2018-11-27T16:11:07.310Z,48.87
2018-11-27T16:13:37.414Z,39.13
2018-11-27T16:16:07.463Z,36.43
2018-11-27T16:18:37.031Z,40.80
2018-11-27T16:21:06.741Z,38.77
2018-11-27T16:23:36.743Z,37.17
2018-11-27T16:26:06.470Z,37.33
2018-11-27T16:28:36.376Z,37.40
2018-11-27T16:31:07.423Z,35.17
2018-11-27T16:33:37.656Z,38.87
2018-11-27T16:36:07.873Z,34.03
2018-11-27T16:38:40.067Z,35.60
2018-11-27T16:41:07.374Z,35.73
2018-11-27T16:43:37.181Z,32.93
2018-11-27T16:46:07.422Z,34.60
2018-11-27T16:48:37.223Z,35.90
2018-11-27T16:51:07.342Z,42.33
2018-11-27T16:53:41.054Z,37.97
2018-11-27T16:56:12.098Z,39.17
2018-11-27T16:58:42.031Z,40.73
2018-11-27T17:01:12.038Z,38.43
2018-11-27T17:03:42.343Z,38.33
2018-11-27T17:06:12.350Z,37.67
2018-11-27T17:08:42.376Z,39.57
2018-11-27T17:11:12.293Z,37.70
2018-11-27T17:13:42.094Z,37.53
2018-11-27T17:16:11.814Z,38.63
2018-11-27T17:18:41.625Z,40.73
2018-11-27T17:21:11.742Z,43.77
2018-11-27T17:23:42.181Z,45.63
2018-11-27T17:26:12.294Z,44.23
2018-11-27T17:28:42.094Z,40.33
2018-11-27T17:31:12.014Z,41.83
2018-11-27T17:33:43.254Z,47.20
2018-11-27T17:36:13.301Z,41.43
2018-11-27T17:38:43.022Z,41.03
2018-11-27T17:41:13.214Z,42.87
2018-11-27T17:43:43.338Z,37.17
2018-11-27T17:46:13.547Z,36.13
2018-11-27T17:48:43.574Z,35.23
2018-11-27T17:51:14.405Z,38.23
2018-11-27T17:53:44.604Z,39.93
2018-11-27T17:56:14.950Z,37.90
2018-11-27T17:58:44.775Z,35.50
2018-11-27T18:01:14.686Z,33.13
2018-11-27T18:03:44.884Z,33.80
2018-11-27T18:06:14.902Z,31.63
2018-11-27T18:08:44.814Z,34.03
2018-11-27T18:11:15.056Z,34.53
2018-11-27T18:13:45.345Z,33.23
2018-11-27T18:16:15.417Z,34.60
2018-11-27T18:18:45.495Z,34.27
2018-11-27T18:21:29.964Z,34.30
2018-11-27T18:24:00.382Z,32.77
2018-11-27T18:26:30.417Z,31.73
2018-11-27T18:29:00.534Z,34.03
2018-11-27T18:31:30.624Z,34.27
2018-11-27T18:34:00.854Z,30.33
2018-11-27T18:36:30.774Z,34.87
2018-11-27T18:39:01.300Z,35.60
2018-11-27T18:41:39.066Z,32.37
2018-11-27T18:44:12.384Z,31.57
2018-11-27T18:46:42.614Z,31.20
2018-11-27T18:49:12.933Z,32.53
2018-11-27T18:51:43.574Z,69.70
2018-11-27T18:54:13.614Z,38.23
2018-11-27T18:56:43.496Z,32.30
2018-11-27T18:59:14.056Z,34.07
2018-11-27T19:01:43.862Z,32.83
2018-11-27T19:04:13.862Z,31.80
2018-11-27T19:06:45.535Z,31.50
2018-11-27T19:09:15.404Z,31.87
2018-11-27T19:12:00.694Z,33.33
2018-11-27T19:14:30.902Z,33.23
2018-11-27T19:17:02.044Z,35.80
2018-11-27T19:22:09.672Z,34.20
2018-11-27T19:24:39.577Z,38.13
2018-11-27T19:27:13.413Z,36.87
2018-11-27T19:29:43.282Z,36.37
2018-11-27T19:32:13.824Z,30.60
2018-11-27T19:34:46.494Z,31.20
2018-11-27T19:37:18.263Z,30.27
2018-11-27T19:39:48.293Z,35.53
2018-11-27T19:42:19.013Z,35.67
2018-11-27T19:44:49.455Z,37.27
2018-11-27T19:47:25.934Z,37.63
2018-11-27T19:49:57.262Z,38.97
2018-11-27T19:52:27.820Z,43.27
2018-11-27T19:54:58.624Z,44.63
2018-11-27T19:57:29.053Z,48.90
2018-11-27T19:59:59.298Z,52.00
2018-11-27T20:02:29.597Z,51.27
2018-11-27T20:04:59.605Z,45.53
2018-11-27T20:07:29.854Z,51.13
2018-11-27T20:10:00.173Z,47.10
2018-11-27T20:12:31.615Z,41.53
2018-11-27T20:15:01.419Z,43.67
2018-11-27T20:17:31.524Z,42.17
2018-11-27T20:20:01.574Z,41.23
2018-11-27T20:22:31.695Z,45.50
2018-11-27T20:25:02.016Z,44.77
2018-11-27T20:27:31.934Z,45.40
2018-11-27T20:30:01.805Z,45.33
2018-11-27T20:32:33.965Z,47.90
2018-11-27T20:35:01.844Z,49.37
2018-11-27T20:37:32.284Z,48.80
2018-11-27T20:40:03.014Z,47.47
2018-11-27T20:42:33.255Z,45.93
2018-11-27T20:45:03.109Z,46.57
2018-11-27T20:47:32.879Z,45.97
2018-11-27T20:50:03.384Z,48.97
2018-11-27T20:52:34.221Z,47.70
2018-11-27T20:55:04.357Z,46.37
2018-11-27T20:57:34.441Z,52.17
2018-11-27T21:00:05.038Z,45.40
2018-11-27T21:02:35.013Z,46.80
2018-11-27T21:05:05.331Z,46.37
2018-11-27T21:07:35.742Z,44.40
2018-11-27T21:10:07.303Z,48.27
2018-11-27T21:12:37.334Z,46.93
2018-11-27T21:15:09.214Z,48.30
2018-11-27T21:17:39.333Z,46.70
2018-11-27T21:20:10.343Z,47.03
2018-11-27T21:22:40.262Z,45.50
2018-11-27T21:25:14.693Z,45.67
2018-11-27T21:27:45.403Z,46.60
2018-11-27T21:30:15.925Z,49.53
2018-11-27T21:32:46.053Z,45.27
2018-11-27T21:35:41.163Z,46.43
2018-11-27T21:38:11.372Z,43.77
2018-11-27T21:40:46.213Z,43.20
2018-11-27T21:43:29.449Z,43.20
2018-11-27T21:45:59.453Z,41.77
2018-11-27T21:48:29.462Z,42.30
2018-11-27T21:51:03.562Z,43.27
2018-11-27T21:53:33.901Z,44.63
2018-11-27T21:56:04.883Z,41.47
2018-11-27T21:58:35.461Z,42.53
2018-11-27T22:01:07.853Z,40.40
2018-11-27T22:03:39.540Z,40.37
2018-11-27T22:06:10.046Z,41.80
2018-11-27T22:08:49.694Z,42.60
2018-11-27T22:11:20.213Z,38.17
2018-11-27T22:13:51.253Z,42.20
2018-11-27T22:16:21.592Z,42.03
2018-11-27T22:18:52.037Z,39.33
2018-11-27T22:21:22.921Z,39.03
2018-11-27T22:23:53.373Z,37.97
2018-11-27T22:26:24.023Z,36.10
2018-11-27T22:28:57.496Z,37.73
2018-11-27T22:31:27.700Z,36.87
2018-11-27T22:33:58.433Z,37.33
2018-11-27T22:36:28.967Z,36.40
2018-11-27T22:38:59.193Z,41.70
2018-11-27T22:41:30.522Z,42.53
2018-11-27T22:44:00.752Z,47.80
2018-11-27T22:46:30.864Z,52.90
2018-11-27T22:49:00.377Z,50.90
2018-11-27T22:51:30.383Z,42.60
2018-11-27T22:54:01.117Z,43.67
2018-11-27T22:56:32.362Z,40.90
2018-11-27T22:59:02.686Z,41.30
2018-11-27T23:01:36.387Z,43.93
2018-11-27T23:04:07.652Z,44.10
2018-11-27T23:06:38.261Z,45.07
2018-11-27T23:09:10.139Z,47.80
2018-11-27T23:11:40.559Z,48.77
2018-11-27T23:14:10.781Z,49.40
2018-11-27T23:16:41.504Z,45.10
2018-11-27T23:19:11.440Z,42.03
2018-11-27T23:21:41.910Z,47.43
2018-11-27T23:24:12.820Z,47.23
2018-11-27T23:26:43.005Z,47.23
2018-11-27T23:29:13.041Z,47.07
2018-11-27T23:31:44.366Z,46.73
2018-11-27T23:34:14.408Z,46.37
2018-11-27T23:36:44.920Z,45.67
2018-11-27T23:39:14.863Z,43.37
2018-11-27T23:41:44.960Z,46.17
2018-11-27T23:44:15.171Z,47.77
2018-11-27T23:46:46.419Z,46.63
2018-11-27T23:49:16.446Z,44.73
2018-11-27T23:51:46.258Z,44.03
2018-11-27T23:54:16.574Z,42.23
2018-11-27T23:56:48.855Z,41.00
2018-11-27T23:59:16.490Z,43.77
